Time;durP1;ratioP1;P1;durP2;ratioP2;P2;SDS_P1;SDS_P2;PMS_P1;PMS_P2;Temp;Humidity;BMP_temperature;BMP_pressure;BME280_temperature;BME280_humidity;BME280_pressure;Samples;Min_cycle;Max_cycle;Signal;HPM_P1;HPM_P2
2023/08/22 00:01:27;;;;;;;10.43;4.65;;;20.70;99.90;;;;;;5034176;28;20045;-74
2023/08/22 00:03:56;;;;;;;8.63;4.78;;;20.60;99.90;;;;;;5020167;28;20040;-74
2023/08/22 00:06:23;;;;;;;9.38;4.65;;;20.70;99.90;;;;;;5021008;28;20045;-74
2023/08/22 00:08:49;;;;;;;6.50;4.70;;;21.20;99.90;;;;;;5020976;28;20052;-74
2023/08/22 00:11:16;;;;;;;7.60;5.43;;;20.80;99.90;;;;;;5021191;28;20052;-74
2023/08/22 00:13:41;;;;;;;8.25;5.20;;;22.80;99.90;;;;;;5021119;28;20507;-74
2023/08/22 00:16:08;;;;;;;10.50;5.28;;;;;;;;;;5021034;28;20087;-74
2023/08/22 00:18:33;;;;;;;8.40;4.43;;;20.60;99.90;;;;;;5037303;28;20041;-74
2023/08/22 00:21:00;;;;;;;9.90;4.55;;;;;;;;;;5020999;28;20195;-74
2023/08/22 00:23:29;;;;;;;6.18;4.82;;;20.70;99.90;;;;;;5020576;28;20416;-74
2023/08/22 00:25:55;;;;;;;9.55;4.45;;;;;;;;;;5020901;28;20086;-74
2023/08/22 00:28:24;;;;;;;8.32;4.63;;;20.50;99.90;;;;;;5020755;28;20077;-74
2023/08/22 00:30:53;;;;;;;10.13;4.63;;;19.90;99.90;;;;;;5037199;28;20041;-73
2023/08/22 00:33:19;;;;;;;5.45;4.35;;;20.50;99.90;;;;;;5020489;28;20109;-74
2023/08/22 00:35:47;;;;;;;6.93;4.07;;;20.70;99.90;;;;;;5037077;28;20108;-74
2023/08/22 00:38:16;;;;;;;8.10;4.97;;;20.50;99.90;;;;;;5020562;28;20041;-74
2023/08/22 00:40:42;;;;;;;10.13;4.95;;;20.80;99.90;;;;;;5036729;28;20076;-74
2023/08/22 00:43:08;;;;;;;12.05;5.20;;;;;;;;;;5054943;28;20229;-74
2023/08/22 00:45:35;;;;;;;7.25;4.57;;;20.20;99.90;;;;;;5054502;28;20029;-74
2023/08/22 00:48:02;;;;;;;8.38;4.38;;;17.80;99.90;;;;;;5037094;28;20099;-74
2023/08/22 00:50:28;;;;;;;7.47;4.70;;;20.30;99.90;;;;;;5020140;28;20091;-74
2023/08/22 00:52:56;;;;;;;8.65;4.95;;;20.10;99.90;;;;;;5054557;28;20037;-74
2023/08/22 00:55:22;;;;;;;8.68;4.28;;;20.20;99.90;;;;;;5036866;28;20412;-74
2023/08/22 00:57:48;;;;;;;10.25;4.50;;;;;;;;;;5036631;28;20041;-74
2023/08/22 01:00:14;;;;;;;7.88;4.38;;;20.30;99.90;;;;;;5036366;28;20553;-73
2023/08/22 01:02:40;;;;;;;7.53;4.22;;;;;;;;;;5054397;28;20037;-74
2023/08/22 01:05:07;;;;;;;7.78;4.47;;;19.90;99.90;;;;;;5054151;28;20119;-74
2023/08/22 01:07:42;;;;;;;8.38;4.32;;;20.40;99.90;;;;;;5054735;28;20056;-73
2023/08/22 01:10:18;;;;;;;6.95;3.75;;;19.60;99.90;;;;;;5036611;28;20057;-74
2023/08/22 01:12:53;;;;;;;5.80;4.38;;;18.30;99.90;;;;;;5036763;28;20095;-74
2023/08/22 01:15:26;;;;;;;8.55;4.25;;;20.30;99.90;;;;;;5054523;28;20497;-74
2023/08/22 01:17:58;;;;;;;9.40;4.25;;;18.60;99.90;;;;;;5036418;28;20033;-74
2023/08/22 01:20:25;;;;;;;9.00;5.05;;;20.10;99.90;;;;;;5036500;28;20480;-74
2023/08/22 01:22:51;;;;;;;8.80;4.80;;;20.40;99.90;;;;;;5053780;28;20072;-76
2023/08/22 01:25:17;;;;;;;10.60;5.50;;;21.00;99.90;;;;;;5036069;28;20037;-74
2023/08/22 01:28:04;;;;;;;11.38;5.35;;;20.20;99.90;;;;;;5053975;28;20041;-74
2023/08/22 01:30:43;;;;;;;5.40;4.32;;;20.30;99.90;;;;;;5058427;23;20460;-69
2023/08/22 01:33:26;;;;;;;10.63;5.93;;;20.00;99.90;;;;;;5019024;28;20037;-71
2023/08/22 01:35:54;;;;;;;8.80;5.15;;;20.20;99.90;;;;;;5018907;28;20405;-71
2023/08/22 01:38:22;;;;;;;8.65;4.80;;;20.40;99.90;;;;;;5035087;28;20068;-71
2023/08/22 01:40:48;;;;;;;8.30;4.78;;;20.30;99.90;;;;;;5034960;28;20064;-71
2023/08/22 01:43:14;;;;;;;15.55;5.97;;;20.80;99.90;;;;;;5035086;28;20029;-71
2023/08/22 01:45:40;;;;;;;10.15;5.80;;;20.10;99.90;;;;;;5034870;28;20218;-72
2023/08/22 01:48:06;;;;;;;8.65;4.93;;;20.00;99.90;;;;;;5052839;28;20183;-71
2023/08/22 01:50:31;;;;;;;12.82;5.53;;;19.90;99.90;;;;;;5034895;28;20267;-71
2023/08/22 01:53:00;;;;;;;8.98;4.53;;;19.80;99.90;;;;;;5034774;28;20033;-71
2023/08/22 01:55:25;;;;;;;9.77;5.68;;;20.10;99.90;;;;;;5034505;28;20041;-71
2023/08/22 01:57:51;;;;;;;8.68;5.28;;;19.60;99.90;;;;;;5052779;28;20455;-71
2023/08/22 02:00:17;;;;;;;7.88;5.45;;;19.80;99.90;;;;;;5052584;28;20033;-71
2023/08/22 02:02:42;;;;;;;11.85;6.65;;;19.90;99.90;;;;;;5034779;28;20473;-71
2023/08/22 02:05:08;;;;;;;10.95;5.07;;;19.80;99.90;;;;;;5034651;28;20317;-71
2023/08/22 02:07:35;;;;;;;7.18;4.93;;;19.70;99.90;;;;;;5034597;28;20045;-71
2023/08/22 02:10:01;;;;;;;6.35;4.97;;;19.90;99.90;;;;;;5052415;28;20139;-71
2023/08/22 02:12:26;;;;;;;8.25;5.18;;;20.50;99.90;;;;;;5034596;28;20122;-71
2023/08/22 02:14:53;;;;;;;6.28;5.00;;;20.00;99.90;;;;;;5034293;28;20044;-71
2023/08/22 02:17:19;;;;;;;8.40;4.78;;;19.60;99.90;;;;;;5018062;28;20056;-71
2023/08/22 02:19:45;;;;;;;8.75;5.45;;;19.60;99.90;;;;;;5017851;28;20037;-71
2023/08/22 02:22:10;;;;;;;10.73;5.28;;;19.50;99.90;;;;;;5034152;28;20037;-72
2023/08/22 02:24:36;;;;;;;15.95;5.32;;;19.50;99.90;;;;;;5052214;28;20033;-71
2023/08/22 02:27:03;;;;;;;9.73;5.15;;;19.60;99.90;;;;;;5033762;28;20067;-71
2023/08/22 02:29:29;;;;;;;8.60;4.97;;;19.60;99.90;;;;;;5052434;28;20052;-72
2023/08/22 02:31:55;;;;;;;7.57;5.07;;;19.90;99.90;;;;;;5034100;28;20075;-72
2023/08/22 02:34:21;;;;;;;9.93;5.90;;;19.50;99.90;;;;;;5034420;28;20044;-71
2023/08/22 02:36:47;;;;;;;9.07;4.50;;;19.50;99.90;;;;;;5034025;28;20492;-71
2023/08/22 02:39:13;;;;;;;9.63;5.18;;;19.70;99.90;;;;;;5034199;28;20051;-71
2023/08/22 02:41:39;;;;;;;8.85;5.47;;;19.30;99.90;;;;;;5033880;28;20037;-71
2023/08/22 02:44:05;;;;;;;9.57;4.60;;;19.20;99.90;;;;;;5033682;28;20094;-71
2023/08/22 02:46:31;;;;;;;9.43;5.10;;;19.50;99.90;;;;;;5034176;28;20041;-72
2023/08/22 02:48:57;;;;;;;8.35;5.03;;;19.20;99.90;;;;;;5033965;28;20056;-72
2023/08/22 02:51:23;;;;;;;7.93;5.45;;;19.20;99.90;;;;;;5034052;28;20041;-71
2023/08/22 02:53:48;;;;;;;8.57;5.47;;;19.30;99.90;;;;;;5017777;28;20063;-71
2023/08/22 02:56:14;;;;;;;8.05;5.45;;;19.30;99.90;;;;;;5034525;28;20431;-71
2023/08/22 02:58:40;;;;;;;8.48;5.15;;;19.40;99.90;;;;;;5034194;28;20037;-71
2023/08/22 03:01:07;;;;;;;8.05;5.63;;;19.00;99.90;;;;;;5033813;28;20435;-72
2023/08/22 03:03:33;;;;;;;7.75;5.30;;;19.20;99.90;;;;;;5033751;28;20045;-71
2023/08/22 03:05:59;;;;;;;7.88;5.32;;;19.10;99.90;;;;;;5051394;28;20047;-71
2023/08/22 03:08:24;;;;;;;7.53;5.22;;;19.20;99.90;;;;;;5051461;28;20492;-71
2023/08/22 03:10:50;;;;;;;7.45;4.57;;;19.10;99.90;;;;;;5051423;28;20056;-71
2023/08/22 03:13:16;;;;;;;6.40;5.30;;;19.30;99.90;;;;;;5033500;28;20120;-71
2023/08/22 03:15:41;;;;;;;6.93;5.00;;;19.30;99.90;;;;;;5033296;28;20714;-71
2023/08/22 03:18:07;;;;;;;9.52;5.50;;;19.20;99.90;;;;;;5033594;28;20037;-71
2023/08/22 03:20:33;;;;;;;7.70;5.78;;;19.10;99.90;;;;;;5033268;28;20040;-70
2023/08/22 03:22:59;;;;;;;11.15;5.43;;;19.10;99.90;;;;;;5017375;28;20378;-71
2023/08/22 03:25:25;;;;;;;8.50;5.50;;;18.90;99.90;;;;;;5033252;28;20542;-71
2023/08/22 03:27:50;;;;;;;10.13;6.28;;;19.00;99.90;;;;;;5033685;28;20082;-72
2023/08/22 03:30:16;;;;;;;11.52;5.68;;;18.90;99.90;;;;;;5033194;28;20120;-72
2023/08/22 03:32:41;;;;;;;12.27;5.50;;;19.00;99.90;;;;;;5033427;28;20036;-71
2023/08/22 03:35:08;;;;;;;8.07;5.28;;;18.70;99.90;;;;;;5016610;28;20033;-71
2023/08/22 03:37:33;;;;;;;11.18;5.30;;;19.00;99.90;;;;;;5034162;28;20052;-71
2023/08/22 03:40:00;;;;;;;11.00;6.60;;;18.90;99.90;;;;;;5037512;28;20029;-71
2023/08/22 03:42:26;;;;;;;8.32;5.82;;;18.70;99.90;;;;;;5037316;28;20064;-71
2023/08/22 03:44:52;;;;;;;11.52;6.60;;;18.90;99.90;;;;;;5037090;28;20531;-71
2023/08/22 03:47:17;;;;;;;10.18;6.15;;;18.80;99.90;;;;;;5037162;28;20073;-71
2023/08/22 03:49:43;;;;;;;8.63;5.75;;;18.90;99.90;;;;;;5054944;28;20111;-71
2023/08/22 03:52:09;;;;;;;10.70;6.07;;;18.90;99.90;;;;;;5036930;28;20044;-71
2023/08/22 03:54:34;;;;;;;10.65;6.38;;;18.80;99.90;;;;;;5036888;28;20147;-71
2023/08/22 03:57:00;;;;;;;9.43;5.55;;;18.80;99.90;;;;;;5036925;28;20037;-71
2023/08/22 03:59:26;;;;;;;7.95;5.00;;;18.70;99.90;;;;;;5036931;28;20033;-71
2023/08/22 04:01:51;;;;;;;9.20;5.60;;;18.60;99.90;;;;;;5054653;28;20200;-70
2023/08/22 04:04:17;;;;;;;10.27;6.25;;;18.80;99.90;;;;;;5036616;28;20500;-71
2023/08/22 04:06:43;;;;;;;8.98;6.93;;;18.80;99.90;;;;;;5054650;28;20028;-71
2023/08/22 04:09:09;;;;;;;10.10;5.88;;;;;;;;;;5020235;28;20043;-71
2023/08/22 04:11:35;;;;;;;9.48;5.85;;;18.50;99.90;;;;;;5036703;28;20049;-71
2023/08/22 04:14:00;;;;;;;9.93;7.25;;;18.70;99.90;;;;;;5036715;28;20569;-71
2023/08/22 04:16:26;;;;;;;10.65;5.95;;;18.70;99.90;;;;;;5054730;28;20071;-71
2023/08/22 04:18:52;;;;;;;9.88;5.88;;;18.30;99.90;;;;;;5020202;28;20041;-71
2023/08/22 04:21:17;;;;;;;9.68;5.80;;;18.60;99.90;;;;;;5054512;28;20481;-72
2023/08/22 04:23:43;;;;;;;6.78;5.53;;;18.50;99.90;;;;;;5036545;28;20056;-72
2023/08/22 04:26:08;;;;;;;8.98;5.82;;;18.40;99.90;;;;;;5036697;28;20522;-71
2023/08/22 04:28:35;;;;;;;11.27;6.03;;;18.40;99.90;;;;;;5036690;28;20044;-71
2023/08/22 04:31:01;;;;;;;9.57;6.32;;;18.60;99.90;;;;;;5036364;28;20052;-72
2023/08/22 04:33:26;;;;;;;8.77;6.05;;;18.50;99.90;;;;;;5036331;28;20036;-72
2023/08/22 04:35:52;;;;;;;12.10;7.65;;;18.60;99.90;;;;;;5020207;28;20044;-71
2023/08/22 04:38:18;;;;;;;10.82;6.07;;;18.50;99.90;;;;;;5036426;28;20453;-72
2023/08/22 04:40:44;;;;;;;10.00;5.90;;;;;;;;;;5054416;28;20040;-71
2023/08/22 04:43:10;;;;;;;9.15;6.47;;;18.50;99.90;;;;;;5036471;28;20048;-71
2023/08/22 04:45:35;;;;;;;8.07;6.32;;;18.40;99.90;;;;;;5035913;28;20493;-71
2023/08/22 04:48:01;;;;;;;11.18;6.72;;;18.20;99.90;;;;;;5035565;28;20033;-72
2023/08/22 04:50:29;;;;;;;10.80;6.57;;;18.60;99.90;;;;;;5035957;28;20040;-71
2023/08/22 04:52:54;;;;;;;8.82;6.07;;;18.30;99.90;;;;;;5036059;28;20094;-71
2023/08/22 04:55:21;;;;;;;10.73;6.75;;;;;;;;;;5036002;28;20033;-71
2023/08/22 04:57:46;;;;;;;10.60;6.15;;;18.40;99.90;;;;;;5035908;28;20051;-71
2023/08/22 05:00:13;;;;;;;10.00;6.55;;;18.20;99.90;;;;;;5035805;28;20037;-71
2023/08/22 05:02:39;;;;;;;10.52;7.00;;;18.50;99.90;;;;;;5035607;28;20037;-72
2023/08/22 05:05:07;;;;;;;11.73;5.65;;;18.40;99.90;;;;;;5019141;28;20408;-71
2023/08/22 05:07:32;;;;;;;12.80;6.47;;;18.60;99.90;;;;;;5035946;28;20511;-71
2023/08/22 05:09:58;;;;;;;10.07;6.90;;;18.60;99.90;;;;;;5035635;28;20076;-71
2023/08/22 05:12:24;;;;;;;10.32;6.40;;;18.70;99.90;;;;;;5035641;28;20114;-71
2023/08/22 05:14:49;;;;;;;11.80;6.93;;;18.50;99.90;;;;;;5036058;28;20037;-72
2023/08/22 05:17:15;;;;;;;9.45;6.85;;;18.60;99.90;;;;;;5035455;28;20504;-71
2023/08/22 05:19:40;;;;;;;10.82;8.57;;;18.70;99.90;;;;;;5035558;28;20033;-71
2023/08/22 05:22:06;;;;;;;11.20;7.30;;;18.60;99.90;;;;;;5018871;28;20404;-72
2023/08/22 05:24:32;;;;;;;8.73;6.72;;;;;;;;;;5035175;28;20041;-71
2023/08/22 05:26:58;;;;;;;13.23;8.70;;;;;;;;;;5035298;28;20041;-71
2023/08/22 05:29:24;;;;;;;10.55;6.68;;;18.90;99.90;;;;;;5019111;28;20048;-72
2023/08/22 05:31:49;;;;;;;9.68;7.35;;;18.90;99.90;;;;;;5034955;28;20073;-71
2023/08/22 05:34:15;;;;;;;11.27;7.57;;;18.80;99.90;;;;;;5035322;28;20044;-71
2023/08/22 05:36:41;;;;;;;11.63;6.93;;;18.90;99.90;;;;;;5035033;28;20044;-71
2023/08/22 05:39:07;;;;;;;10.40;6.97;;;;;;;;;;5035162;28;20091;-71
2023/08/22 05:41:32;;;;;;;9.73;8.52;;;19.00;99.90;;;;;;5034880;28;20508;-72
2023/08/22 05:43:58;;;;;;;8.02;5.72;;;19.20;99.90;;;;;;5052920;28;20049;-71
2023/08/22 05:46:24;;;;;;;10.05;7.25;;;19.00;99.90;;;;;;5018465;28;20553;-72
2023/08/22 05:48:49;;;;;;;12.15;7.22;;;19.30;99.90;;;;;;5053317;28;20041;-72
2023/08/22 05:51:15;;;;;;;10.63;7.70;;;19.20;99.90;;;;;;5018551;28;20045;-71
2023/08/22 05:53:41;;;;;;;11.70;8.25;;;19.60;99.90;;;;;;5052712;28;20045;-71
2023/08/22 05:56:06;;;;;;;10.43;6.95;;;19.40;99.90;;;;;;5034750;28;20679;-72
2023/08/22 05:58:34;;;;;;;10.25;7.07;;;19.70;99.90;;;;;;5035024;28;20037;-71
2023/08/22 06:01:07;;;;;;;11.20;7.97;;;19.40;99.90;;;;;;5033933;28;20429;-72
2023/08/22 06:03:32;;;;;;;;;;;19.70;99.90;;;;;;5034927;28;20531;-71
2023/08/22 06:05:58;;;;;;;9.18;7.32;;;19.70;99.90;;;;;;5034562;28;19916;-71
2023/08/22 06:08:23;;;;;;;9.40;6.45;;;19.70;99.90;;;;;;5034519;28;20044;-71
2023/08/22 06:10:49;;;;;;;11.13;7.43;;;20.00;99.90;;;;;;5034729;28;20126;-71
2023/08/22 06:13:15;;;;;;;8.35;6.30;;;20.00;99.90;;;;;;5034417;28;20128;-72
2023/08/22 06:15:40;;;;;;;14.85;7.07;;;19.90;99.90;;;;;;5034393;28;20040;-71
2023/08/22 06:18:07;;;;;;;14.90;7.45;;;20.10;99.90;;;;;;5035281;28;20067;-72
2023/08/22 06:20:37;;;;;;;17.50;8.18;;;20.20;99.90;;;;;;5035303;28;20534;-71
2023/08/22 06:23:03;;;;;;;10.45;7.75;;;20.10;99.90;;;;;;5035689;28;20037;-71
2023/08/22 06:25:29;;;;;;;12.77;7.30;;;20.30;99.90;;;;;;5034732;28;20449;-71
2023/08/22 06:27:54;;;;;;;10.80;6.25;;;20.10;99.90;;;;;;5034212;28;20086;-71
2023/08/22 06:30:20;;;;;;;11.65;7.32;;;20.30;99.90;;;;;;5051828;28;20484;-71
2023/08/22 06:32:45;;;;;;;12.48;7.97;;;20.50;99.90;;;;;;5052210;28;20079;-71
2023/08/22 06:35:11;;;;;;;14.38;8.02;;;;;;;;;;5033907;28;20033;-71
2023/08/22 06:37:37;;;;;;;9.70;6.90;;;20.40;99.90;;;;;;5051924;28;20049;-72
2023/08/22 06:40:05;;;;;;;11.57;6.65;;;20.70;99.90;;;;;;5034008;28;20544;-71
2023/08/22 06:42:31;;;;;;;10.63;7.95;;;20.50;99.90;;;;;;5034269;28;20404;-71
2023/08/22 06:44:57;;;;;;;16.90;8.80;;;20.90;99.90;;;;;;5051795;28;20159;-71
2023/08/22 06:47:22;;;;;;;11.90;7.25;;;20.60;99.90;;;;;;5034011;28;20416;-69
2023/08/22 06:49:48;;;;;;;12.85;7.00;;;;;;;;;;5051796;28;20404;-69
2023/08/22 06:52:14;;;;;;;13.95;7.70;;;21.10;99.90;;;;;;5033926;28;20041;-69
2023/08/22 06:54:40;;;;;;;14.05;7.82;;;21.10;99.90;;;;;;5033771;28;20087;-69
2023/08/22 06:57:06;;;;;;;9.40;6.25;;;21.00;99.90;;;;;;5033836;28;20041;-69
2023/08/22 06:59:32;;;;;;;12.65;8.30;;;21.20;99.90;;;;;;5033921;28;20041;-69
2023/08/22 07:01:58;;;;;;;11.55;7.70;;;21.30;99.90;;;;;;5033827;28;20675;-69
2023/08/22 07:04:24;;;;;;;14.00;8.13;;;21.30;99.90;;;;;;5033604;28;20120;-69
2023/08/22 07:06:49;;;;;;;12.23;6.72;;;21.40;99.90;;;;;;5033934;28;20067;-69
2023/08/22 07:09:15;;;;;;;12.85;7.25;;;21.40;99.90;;;;;;5033729;28;20048;-69
2023/08/22 07:11:42;;;;;;;10.00;7.03;;;21.60;99.90;;;;;;5033258;28;20037;-69
2023/08/22 07:14:08;;;;;;;11.48;7.50;;;21.50;99.90;;;;;;5051584;28;20052;-69
2023/08/22 07:16:34;;;;;;;13.52;7.75;;;21.60;99.90;;;;;;5017670;28;20072;-69
2023/08/22 07:18:59;;;;;;;16.85;7.93;;;21.80;99.90;;;;;;5033897;28;20075;-69
2023/08/22 07:21:25;;;;;;;16.90;8.27;;;21.50;99.90;;;;;;5033469;28;20041;-72
2023/08/22 07:23:51;;;;;;;8.98;6.68;;;21.40;99.90;;;;;;5033301;28;20094;-72
2023/08/22 07:26:17;;;;;;;9.75;7.28;;;21.50;99.90;;;;;;5033514;28;20037;-71
2023/08/22 07:28:42;;;;;;;9.77;7.60;;;21.60;99.90;;;;;;5033729;28;20045;-70
2023/08/22 07:31:08;;;;;;;13.00;6.97;;;21.70;99.90;;;;;;5034368;28;20049;-71
2023/08/22 07:33:34;;;;;;;13.07;7.70;;;21.50;99.90;;;;;;5051431;28;20040;-71
2023/08/22 07:36:01;;;;;;;10.98;7.45;;;21.70;99.90;;;;;;5033730;28;20048;-69
2023/08/22 07:38:28;;;;;;;12.20;6.95;;;21.70;99.90;;;;;;5033310;28;20430;-70
2023/08/22 07:40:54;;;;;;;11.10;7.43;;;21.60;99.90;;;;;;5032932;28;20055;-70
2023/08/22 07:43:19;;;;;;;11.82;8.10;;;21.70;99.90;;;;;;5033456;28;20493;-70
2023/08/22 07:45:45;;;;;;;10.77;7.18;;;22.20;99.90;;;;;;5033140;28;20036;-70
2023/08/22 07:48:10;;;;;;;11.10;7.25;;;22.00;99.90;;;;;;5033386;28;20041;-70
2023/08/22 07:50:36;;;;;;;16.45;8.05;;;21.80;99.90;;;;;;5033146;28;20036;-70
2023/08/22 07:53:04;;;;;;;15.98;9.00;;;22.00;99.90;;;;;;5051056;28;20136;-70
2023/08/22 07:55:30;;;;;;;14.15;7.20;;;22.10;99.90;;;;;;5032896;28;20044;-70
2023/08/22 07:57:56;;;;;;;10.20;7.25;;;22.40;99.90;;;;;;5033514;28;20071;-71
2023/08/22 08:00:22;;;;;;;15.02;7.30;;;22.40;99.90;;;;;;5033006;28;20045;-70
2023/08/22 08:02:49;;;;;;;10.20;6.72;;;22.70;99.90;;;;;;5033360;28;20029;-70
2023/08/22 08:05:15;;;;;;;11.27;6.03;;;22.60;99.90;;;;;;5033350;28;20044;-70
2023/08/22 08:07:41;;;;;;;10.98;5.90;;;22.80;99.90;;;;;;5051021;28;20068;-70
2023/08/22 08:10:07;;;;;;;12.80;6.18;;;22.80;99.90;;;;;;5016512;28;20045;-70
2023/08/22 08:12:33;;;;;;;8.27;6.05;;;23.10;99.90;;;;;;5033418;28;20041;-70
2023/08/22 08:14:59;;;;;;;11.00;6.25;;;22.90;99.90;;;;;;5033712;28;20316;-70
2023/08/22 08:17:25;;;;;;;12.10;6.97;;;22.90;99.90;;;;;;5033987;28;20107;-70
2023/08/22 08:19:51;;;;;;;8.25;6.00;;;23.20;99.90;;;;;;5034731;28;20393;-70
2023/08/22 08:22:17;;;;;;;9.10;5.72;;;23.50;99.90;;;;;;5034760;28;20036;-70
2023/08/22 08:24:43;;;;;;;11.40;6.35;;;23.40;99.90;;;;;;5037248;28;20045;-71
2023/08/22 08:27:09;;;;;;;8.93;5.60;;;23.70;99.90;;;;;;5038167;28;20558;-70
2023/08/22 08:29:34;;;;;;;7.28;4.93;;;23.80;99.90;;;;;;5038161;28;20047;-70
2023/08/22 08:32:00;;;;;;;9.05;5.50;;;24.00;99.90;;;;;;5037912;28;20033;-71
2023/08/22 08:34:26;;;;;;;11.18;5.25;;;24.20;99.90;;;;;;5037724;28;20041;-70
2023/08/22 08:36:52;;;;;;;9.75;5.85;;;24.30;99.90;;;;;;5037836;28;20045;-70
2023/08/22 08:39:18;;;;;;;7.93;5.18;;;24.20;99.90;;;;;;5037794;28;20114;-71
2023/08/22 08:42:09;;;;;;;10.10;5.57;;;24.30;99.90;;;;;;5037759;28;20093;-71
2023/08/22 08:44:36;;;;;;;8.27;5.38;;;24.60;99.90;;;;;;5055588;28;20048;-70
2023/08/22 08:47:03;;;;;;;10.70;5.80;;;24.80;99.90;;;;;;5038459;28;20053;-71
2023/08/22 08:49:32;;;;;;;10.52;6.63;;;24.50;99.90;;;;;;5037836;28;20499;-70
2023/08/22 08:52:02;;;;;;;9.25;5.68;;;24.40;99.90;;;;;;5037298;28;20036;-71
2023/08/22 08:54:31;;;;;;;9.02;4.90;;;24.30;99.90;;;;;;5037469;28;20389;-69
2023/08/22 08:56:57;;;;;;;8.60;5.00;;;24.20;99.90;;;;;;5037347;28;20488;-71
2023/08/22 08:59:23;;;;;;;8.65;5.43;;;24.80;99.90;;;;;;5055176;28;20500;-70
2023/08/22 09:01:52;;;;;;;8.93;4.57;;;24.70;99.90;;;;;;5037290;28;20037;-71
2023/08/22 09:04:18;;;;;;;7.28;4.80;;;24.60;99.90;;;;;;5055010;28;20045;-70
2023/08/22 09:06:47;;;;;;;7.05;4.53;;;24.20;99.90;;;;;;5037158;28;20044;-71
2023/08/22 09:09:14;;;;;;;9.88;4.72;;;24.50;99.90;;;;;;5037265;28;20041;-71
2023/08/22 09:11:45;;;;;;;8.65;5.07;;;24.40;99.90;;;;;;5037280;28;20120;-71
2023/08/22 09:14:11;;;;;;;7.50;4.88;;;24.50;99.90;;;;;;5037198;28;20037;-70
2023/08/22 09:16:37;;;;;;;7.97;4.32;;;24.10;99.90;;;;;;5055047;28;20047;-71
2023/08/22 09:19:03;;;;;;;11.90;4.82;;;24.10;99.90;;;;;;5037919;28;20048;-71
2023/08/22 09:21:29;;;;;;;6.55;3.75;;;24.00;99.90;;;;;;5021192;28;20041;-70
2023/08/22 09:24:09;;;;;;;13.88;4.47;;;24.00;99.90;;;;;;5038031;28;20036;-70
2023/08/22 09:26:36;;;;;;;9.90;5.80;;;24.30;99.90;;;;;;5037250;28;20067;-71
2023/08/22 09:29:06;;;;;;;8.70;4.63;;;24.60;99.90;;;;;;5036909;28;20528;-71
2023/08/22 09:31:34;;;;;;;9.98;4.55;;;24.50;99.90;;;;;;5037282;28;20044;-72
2023/08/22 09:34:09;;;;;;;5.63;3.80;;;24.70;99.90;;;;;;5036805;28;20045;-71
2023/08/22 09:36:44;;;;;;;8.65;4.20;;;25.00;99.90;;;;;;5020142;28;20049;-72
2023/08/22 09:39:16;;;;;;;7.78;4.55;;;25.20;99.90;;;;;;5037087;28;20041;-72
2023/08/22 09:41:42;;;;;;;11.18;4.80;;;25.30;99.90;;;;;;5036456;28;20072;-72
2023/08/22 09:44:09;;;;;;;15.40;6.30;;;25.10;99.90;;;;;;5036567;28;20079;-71
2023/08/22 09:46:38;;;;;;;7.65;4.82;;;24.80;99.90;;;;;;5037071;28;20036;-71
2023/08/22 09:49:09;;;;;;;8.07;4.28;;;24.80;99.90;;;;;;5036990;28;20037;-72
2023/08/22 09:51:37;;;;;;;8.48;4.28;;;24.60;99.90;;;;;;5036674;28;20052;-70
2023/08/22 09:54:03;;;;;;;10.32;3.97;;;24.80;99.90;;;;;;5036476;28;20080;-71
2023/08/22 09:56:31;;;;;;;10.02;4.60;;;25.00;99.90;;;;;;5036766;28;20089;-71
2023/08/22 09:59:00;;;;;;;7.18;3.35;;;25.30;99.90;;;;;;5054464;28;20045;-71
2023/08/22 10:01:27;;;;;;;9.25;4.60;;;25.30;99.90;;;;;;5036261;28;20044;-71
2023/08/22 10:03:54;;;;;;;10.75;4.50;;;25.50;99.90;;;;;;5034848;28;20062;-71
2023/08/22 10:06:21;;;;;;;9.40;4.55;;;25.20;99.90;;;;;;5034758;28;20040;-71
2023/08/22 10:08:48;;;;;;;9.32;4.70;;;25.40;99.90;;;;;;5018415;28;20077;-71
2023/08/22 10:11:16;;;;;;;13.32;5.07;;;25.40;99.90;;;;;;5034591;28;20041;-71
2023/08/22 10:13:43;;;;;;;7.20;4.80;;;25.40;99.90;;;;;;5052258;28;20120;-71
2023/08/22 10:16:09;;;;;;;10.23;4.43;;;25.60;99.90;;;;;;5034676;28;20045;-71
2023/08/22 10:18:34;;;;;;;7.80;4.72;;;25.80;99.90;;;;;;5034717;28;20377;-71
2023/08/22 10:21:02;;;;;;;13.18;3.83;;;25.20;99.90;;;;;;5034710;28;20492;-71
2023/08/22 10:23:58;;;;;;;9.25;4.50;;;25.40;99.90;;;;;;5034210;28;20033;-71
2023/08/22 10:26:27;;;;;;;5.85;3.28;;;25.00;99.90;;;;;;5034729;28;20114;-72
2023/08/22 10:29:12;;;;;;;9.02;4.28;;;25.40;99.90;;;;;;5034297;28;20044;-71
2023/08/22 10:32:13;;;;;;;6.88;3.67;;;25.50;99.90;;;;;;5034288;28;20450;-72
2023/08/22 10:34:39;;;;;;;3.70;2.50;;;25.70;99.90;;;;;;5034247;28;20392;-72
2023/08/22 10:37:06;;;;;;;7.32;2.72;;;26.10;99.90;;;;;;5052080;28;20045;-71
2023/08/22 10:39:39;;;;;;;8.27;3.20;;;26.30;99.90;;;;;;5034205;28;20120;-71
2023/08/22 10:42:17;;;;;;;5.63;2.70;;;26.70;99.90;;;;;;5034257;28;20546;-71
2023/08/22 10:44:50;;;;;;;5.60;3.30;;;26.50;99.90;;;;;;5033791;28;20501;-72
2023/08/22 10:47:19;;;;;;;5.28;2.80;;;26.40;99.90;;;;;;5033636;28;20048;-71
2023/08/22 10:49:52;;;;;;;4.00;2.30;;;26.20;99.90;;;;;;5051934;28;20163;-72
2023/08/22 10:52:25;;;;;;;5.25;2.83;;;26.30;99.90;;;;;;5033867;28;20049;-71
2023/08/22 10:55:03;;;;;;;9.00;3.30;;;26.50;99.90;;;;;;5033751;28;20116;-71
2023/08/22 10:57:33;;;;;;;7.45;3.22;;;26.50;99.90;;;;;;5051668;28;20060;-72
2023/08/22 10:59:59;;;;;;;6.32;3.05;;;26.60;99.90;;;;;;5033838;28;20040;-71
2023/08/22 11:02:30;;;;;;;9.18;4.00;;;26.80;99.90;;;;;;5033774;28;20052;-71
2023/08/22 11:05:03;;;;;;;6.38;3.30;;;26.70;99.90;;;;;;5033568;28;20049;-72
2023/08/22 11:07:30;;;;;;;10.70;4.95;;;26.90;99.90;;;;;;5034142;28;20396;-72
2023/08/22 11:09:57;;;;;;;7.60;3.88;;;26.90;99.90;;;;;;5033605;28;20496;-71
2023/08/22 11:12:24;;;;;;;12.00;5.10;;;26.90;99.90;;;;;;5033688;28;20045;-71
2023/08/22 11:14:52;;;;;;;8.13;4.90;;;27.20;99.90;;;;;;5033786;28;20040;-71
2023/08/22 11:17:20;;;;;;;8.85;3.70;;;27.00;99.90;;;;;;5051391;28;20045;-71
2023/08/22 11:19:47;;;;;;;12.00;4.00;;;27.30;99.90;;;;;;5033436;28;20124;-72
2023/08/22 11:22:13;;;;;;;7.07;4.18;;;27.50;99.90;;;;;;5033519;28;20041;-71
2023/08/22 11:24:43;;;;;;;8.55;4.30;;;27.40;99.90;;;;;;5033696;28;20397;-70
2023/08/22 11:27:09;;;;;;;6.20;4.00;;;27.00;99.90;;;;;;5033558;28;20044;-72
2023/08/22 11:29:51;;;;;;;8.88;4.03;;;26.70;99.90;;;;;;5033536;28;20044;-71
2023/08/22 11:32:28;;;;;;;6.65;3.65;;;26.90;99.90;;;;;;5033777;28;20444;-71
2023/08/22 11:35:01;;;;;;;7.65;5.10;;;27.10;99.90;;;;;;5051304;28;20044;-71
2023/08/22 11:37:30;;;;;;;13.18;5.35;;;26.70;99.90;;;;;;5033468;28;20439;-71
2023/08/22 11:39:58;;;;;;;6.55;4.18;;;27.40;99.90;;;;;;5033782;28;20041;-71
2023/08/22 11:42:26;;;;;;;11.00;5.95;;;27.20;99.90;;;;;;5033237;28;20148;-71
2023/08/22 11:45:08;;;;;;;7.45;4.78;;;27.10;99.90;;;;;;5033225;28;20048;-71
2023/08/22 11:47:58;;;;;;;7.68;5.10;;;26.80;99.90;;;;;;5033413;28;20065;-71
2023/08/22 11:50:28;;;;;;;8.00;5.30;;;27.20;99.90;;;;;;5033250;28;20040;-71
2023/08/22 11:53:06;;;;;;;6.43;3.97;;;27.20;99.90;;;;;;5033207;28;20056;-71
2023/08/22 11:55:32;;;;;;;8.07;4.55;;;27.60;99.90;;;;;;5033142;28;20037;-71
2023/08/22 11:58:06;;;;;;;8.55;5.30;;;27.80;99.90;;;;;;5033299;28;20049;-71
2023/08/22 12:00:32;;;;;;;11.23;6.15;;;27.80;99.90;;;;;;5020559;28;20552;-72
2023/08/22 12:03:01;;;;;;;7.10;4.15;;;27.60;99.90;;;;;;5020489;28;20045;-71
2023/08/22 12:05:44;;;;;;;7.95;4.95;;;27.10;99.90;;;;;;5036805;28;20048;-71
2023/08/22 12:08:13;;;;;;;8.30;5.68;;;27.00;99.90;;;;;;5037016;28;20442;-71
2023/08/22 12:10:44;;;;;;;9.25;5.43;;;26.60;99.90;;;;;;5036835;28;20032;-71
2023/08/22 12:13:11;;;;;;;9.98;5.00;;;26.30;99.90;;;;;;5037002;28;20037;-71
2023/08/22 12:15:38;;;;;;;8.75;4.68;;;26.20;99.90;;;;;;5036635;28;20463;-71
2023/08/22 12:18:07;;;;;;;6.72;4.18;;;26.00;99.90;;;;;;5036761;28;20563;-71
2023/08/22 12:20:33;;;;;;;7.43;4.45;;;26.30;99.90;;;;;;5036677;28;20155;-71
2023/08/22 12:22:59;;;;;;;9.30;4.22;;;26.50;99.90;;;;;;5036662;28;20041;-71
2023/08/22 12:25:24;;;;;;;9.48;4.65;;;26.80;99.90;;;;;;5036472;28;20400;-71
2023/08/22 12:27:51;;;;;;;11.27;4.78;;;26.40;99.90;;;;;;5036713;28;20202;-70
2023/08/22 12:30:17;;;;;;;7.13;4.68;;;26.50;99.90;;;;;;5036301;28;20124;-71
2023/08/22 12:32:46;;;;;;;9.18;4.78;;;26.60;99.90;;;;;;5037036;28;20155;-71
2023/08/22 12:35:12;;;;;;;9.82;5.10;;;26.80;99.90;;;;;;5036318;28;20089;-70
2023/08/22 12:37:38;;;;;;;10.65;4.88;;;26.90;99.90;;;;;;5036440;28;20408;-71
2023/08/22 12:40:10;;;;;;;11.30;4.60;;;26.90;99.90;;;;;;5036542;28;20041;-70
2023/08/22 12:42:36;;;;;;;8.00;4.13;;;27.10;99.90;;;;;;5019831;28;20044;-70
2023/08/22 12:45:03;;;;;;;9.48;3.67;;;27.40;99.90;;;;;;5036030;28;20111;-71
2023/08/22 12:47:28;;;;;;;9.05;3.63;;;27.20;99.90;;;;;;5020193;28;20053;-71
2023/08/22 12:49:54;;;;;;;11.80;4.05;;;27.30;99.90;;;;;;5037170;28;20132;-71